Time;durP1;ratioP1;P1;durP2;ratioP2;P2;SDS_P1;SDS_P2;PMS_P1;PMS_P2;Temp;Humidity;BMP_temperature;BMP_pressure;BME280_temperature;BME280_humidity;BME280_pressure;Samples;Min_cycle;Max_cycle;Signal;HPM_P1;HPM_P2
2021/09/21 00:00:35;;;;;;;3.60;2.77;;;;;;;14.14;56.85;99659.09;5089917;28;42044;-83
2021/09/21 00:03:04;;;;;;;5.70;2.37;;;;;;;14.12;57.01;99655.69;5092483;28;43237;-79
2021/09/21 00:05:31;;;;;;;3.47;2.23;;;;;;;14.17;56.76;99669.56;5075029;28;43433;-84
2021/09/21 00:07:59;;;;;;;3.17;2.60;;;;;;;14.14;56.77;99675.09;5107965;28;38880;-80
2021/09/21 00:10:27;;;;;;;3.27;2.30;;;;;;;14.10;56.88;99671.75;5090502;28;41548;-82
2021/09/21 00:12:55;;;;;;;2.63;2.43;;;;;;;14.09;57.07;99679.88;5070625;28;41751;-83
2021/09/21 00:15:22;;;;;;;3.60;2.40;;;;;;;14.05;56.56;99684.53;5071982;28;43224;-82
2021/09/21 00:17:52;;;;;;;4.07;2.40;;;;;;;14.07;56.62;99695.09;5070449;28;40041;-82
2021/09/21 00:20:21;;;;;;;2.40;2.00;;;;;;;14.08;56.52;99704.78;5089069;28;41021;-79
2021/09/21 00:22:49;;;;;;;3.13;1.80;;;;;;;14.04;56.43;99696.13;5090415;28;42765;-79
2021/09/21 00:25:17;;;;;;;2.53;1.90;;;;;;;14.05;56.85;99692.50;5074884;28;42131;-82
2021/09/21 00:27:45;;;;;;;2.17;1.97;;;;;;;13.96;56.63;99683.31;5091058;28;39257;-81
2021/09/21 00:30:20;;;;;;;2.37;2.13;;;;;;;13.96;56.79;99683.31;5073413;28;41509;-82
2021/09/21 00:33:02;;;;;;;2.20;1.87;;;;;;;14.02;56.79;99701.56;5091860;28;43160;-81
2021/09/21 00:35:33;;;;;;;3.07;2.30;;;;;;;14.01;57.11;99705.16;5108065;27;42190;-80
2021/09/21 00:38:03;;;;;;;2.70;2.27;;;;;;;13.94;57.27;99685.22;5090657;28;40148;-83
2021/09/21 00:40:31;;;;;;;2.60;2.10;;;;;;;13.94;57.51;99690.53;5089759;28;41731;-81
2021/09/21 00:43:02;;;;;;;2.80;2.27;;;;;;;13.92;57.15;99694.25;5074046;28;41714;-83
2021/09/21 00:45:30;;;;;;;1.70;1.60;;;;;;;13.89;57.28;99692.63;5090336;28;42127;-81
2021/09/21 00:47:58;;;;;;;3.10;2.20;;;;;;;13.80;56.80;99685.22;5091328;28;41184;-82
2021/09/21 00:50:28;;;;;;;1.90;1.57;;;;;;;13.81;57.07;99692.25;5091487;28;41889;-80
2021/09/21 00:53:00;;;;;;;1.90;1.73;;;;;;;13.74;57.06;99682.91;5090467;28;43043;-81
2021/09/21 00:55:28;;;;;;;1.73;1.60;;;;;;;13.70;58.32;99680.56;5107760;27;41204;-82
2021/09/21 00:57:56;;;;;;;2.30;2.03;;;;;;;13.67;58.42;99681.59;5090726;28;39997;-79
2021/09/21 01:00:24;;;;;;;5.67;2.20;;;;;;;13.67;57.99;99697.56;5073895;28;41847;-79
2021/09/21 01:02:52;;;;;;;3.00;2.70;;;;;;;13.65;58.92;99692.34;5090897;28;43924;-84
2021/09/21 01:05:20;;;;;;;2.97;2.20;;;;;;;13.61;58.26;99688.16;5124225;27;43231;-81
2021/09/21 01:07:48;;;;;;;2.53;1.83;;;;;;;13.63;58.19;99696.03;5072919;28;39547;-82
2021/09/21 01:10:19;;;;;;;3.70;1.97;;;;;;;13.62;58.14;99691.66;5073105;28;41920;-81
2021/09/21 01:12:47;;;;;;;2.50;2.00;;;;;;;13.55;57.64;99698.31;5073486;28;42002;-80
2021/09/21 01:15:15;;;;;;;4.30;1.97;;;;;;;13.51;57.90;99686.16;5072538;28;41268;-81
2021/09/21 01:17:44;;;;;;;2.43;1.83;;;;;;;13.48;58.38;99691.66;5073362;28;38994;-79
2021/09/21 01:20:14;;;;;;;2.50;1.73;;;;;;;13.40;58.14;99694.78;5091273;28;42689;-82
2021/09/21 01:22:43;;;;;;;2.93;1.67;;;;;;;13.25;57.89;99695.72;5072845;28;43085;-82
2021/09/21 01:25:12;;;;;;;2.30;2.10;;;;;;;13.33;58.47;99695.28;5089021;28;42141;-82
2021/09/21 01:27:40;;;;;;;2.67;2.10;;;;;;;13.28;58.58;99693.72;5072964;28;39245;-84
2021/09/21 01:30:10;;;;;;;2.70;2.20;;;;;;;13.22;58.56;99707.41;5072724;28;41802;-81
2021/09/21 01:32:44;;;;;;;2.40;2.00;;;;;;;13.17;58.82;99704.16;5088431;28;42967;-84
2021/09/21 01:35:14;;;;;;;2.67;2.00;;;;;;;13.18;58.62;99710.34;5088907;28;41198;-80
2021/09/21 01:37:50;;;;;;;2.50;1.70;;;;;;;13.18;58.83;99705.88;5073392;28;39865;-81
2021/09/21 01:40:18;;;;;;;2.83;2.00;;;;;;;13.13;58.67;99707.91;5088994;28;42889;-80
2021/09/21 01:42:48;;;;;;;1.63;1.53;;;;;;;13.12;58.53;99719.50;5088723;28;43759;-82
2021/09/21 01:45:17;;;;;;;2.10;1.80;;;;;;;13.12;58.55;99724.81;5106402;27;41594;-84
2021/09/21 01:47:47;;;;;;;1.53;1.43;;;;;;;13.07;58.50;99707.44;5073382;28;40270;-80
2021/09/21 01:53:13;;;;;;;2.20;1.43;;;;;;;12.98;58.10;99700.84;5085278;28;43204;-81
2021/09/21 02:01:12;;;;;;;2.07;1.53;;;;;;;13.08;58.44;99730.41;5064560;28;40536;-81
2021/09/21 02:03:40;;;;;;;2.03;1.63;;;;;;;12.99;58.22;99710.53;5069774;28;43532;-81
2021/09/21 02:06:07;;;;;;;2.23;2.00;;;;;;;13.01;58.32;99726.38;5061086;28;42501;-81
2021/09/21 02:08:42;;;;;;;2.73;1.87;;;;;;;12.99;58.45;99731.78;5090274;28;40554;-82
2021/09/21 02:11:10;;;;;;;2.07;1.80;;;;;;;12.95;58.20;99725.81;5071805;28;41612;-81
2021/09/21 02:13:37;;;;;;;2.00;1.27;;;;;;;12.78;58.50;99701.16;5089421;28;43613;-80
2021/09/21 02:16:06;;;;;;;2.70;2.00;;;;;;;12.87;58.72;99719.22;5089059;28;42432;-82
2021/09/21 02:18:34;;;;;;;1.70;1.43;;;;;;;12.80;58.77;99720.53;5089096;28;40220;-80
2021/09/21 02:21:04;;;;;;;2.60;1.90;;;;;;;12.72;58.61;99720.13;5089710;28;41997;-80
2021/09/21 02:23:32;;;;;;;2.47;1.83;;;;;;;12.69;58.74;99728.25;5089388;28;45376;-79
2021/09/21 02:26:01;;;;;;;2.03;1.77;;;;;;;12.67;58.45;99730.16;5071310;28;42759;-81
2021/09/21 02:28:28;;;;;;;1.43;1.30;;;;;;;12.63;59.45;99728.59;5089571;28;40257;-83
2021/09/21 02:30:55;;;;;;;2.47;1.73;;;;;;;12.61;59.05;99727.84;5088696;28;42358;-83
2021/09/21 02:33:23;;;;;;;1.67;1.40;;;;;;;12.61;59.11;99733.16;5088749;28;41925;-82
2021/09/21 02:35:51;;;;;;;1.80;1.70;;;;;;;12.62;59.19;99733.06;5087562;28;42919;-81
2021/09/21 02:38:19;;;;;;;1.87;1.70;;;;;;;12.61;59.27;99722.53;5088535;28;38875;-82
2021/09/21 02:40:46;;;;;;;2.13;1.50;;;;;;;12.58;59.30;99734.19;5086758;28;42084;-78
2021/09/21 02:43:15;;;;;;;2.40;1.47;;;;;;;12.57;59.46;99733.34;5088199;28;43087;-82
2021/09/21 02:45:49;;;;;;;2.00;1.70;;;;;;;12.55;59.27;99729.91;5088262;28;41954;-80
2021/09/21 02:48:16;;;;;;;2.23;1.73;;;;;;;12.52;59.49;99732.72;5089210;28;39593;-79
2021/09/21 02:50:44;;;;;;;1.27;1.10;;;;;;;12.49;59.51;99734.69;5087200;28;42097;-81
2021/09/21 02:53:12;;;;;;;1.77;1.63;;;;;;;12.47;59.59;99724.19;5088135;28;42687;-83
2021/09/21 02:55:40;;;;;;;2.03;1.50;;;;;;;12.45;59.73;99728.72;5089083;28;42516;-80
2021/09/21 02:58:07;;;;;;;2.80;1.63;;;;;;;12.42;59.79;99739.50;5076377;28;38820;-80
2021/09/21 03:00:36;;;;;;;2.10;1.53;;;;;;;12.42;59.68;99734.19;5090573;28;41944;-82
2021/09/21 03:03:05;;;;;;;2.27;1.63;;;;;;;12.29;59.55;99709.25;5072123;28;41848;-79
2021/09/21 03:05:37;;;;;;;2.33;1.67;;;;;;;12.37;59.76;99727.41;5087486;28;42509;-83
2021/09/21 03:08:08;;;;;;;2.20;2.00;;;;;;;12.19;59.44;99710.72;5072021;28;38941;-81
2021/09/21 03:10:46;;;;;;;1.17;1.00;;;;;;;12.21;59.56;99727.44;5089006;28;41425;-79
2021/09/21 03:13:38;;;;;;;3.73;1.60;;;;;;;12.11;59.83;99742.16;5071308;28;42390;-79
2021/09/21 03:18:53;;;;;;;1.57;1.47;;;;;;;12.00;59.92;99739.19;5088562;28;41226;-83
2021/09/21 03:21:20;;;;;;;2.00;1.47;;;;;;;11.99;59.82;99745.47;5087346;28;41035;-81
2021/09/21 03:23:48;;;;;;;2.03;1.60;;;;;;;12.02;59.97;99753.25;5088427;28;43835;-82
2021/09/21 03:26:16;;;;;;;2.53;1.93;;;;;;;12.03;59.73;99760.28;5070495;28;42693;-80
2021/09/21 03:28:44;;;;;;;1.77;1.30;;;;;;;12.06;59.96;99754.81;5072023;28;38825;-83
2021/09/21 03:31:13;;;;;;;2.40;1.53;;;;;;;12.06;60.25;99760.97;5070123;28;40896;-80
2021/09/21 03:33:40;;;;;;;2.07;1.73;;;;;;;11.97;60.30;99742.03;5088113;28;41709;-81
2021/09/21 03:36:08;;;;;;;2.50;1.60;;;;;;;12.04;60.05;99756.69;5087645;28;42431;-82
2021/09/21 03:38:35;;;;;;;1.80;1.60;;;;;;;12.06;60.59;99766.28;5070905;28;40171;-82
2021/09/21 03:41:03;;;;;;;2.13;1.70;;;;;;;11.94;60.83;99739.53;5086121;28;40368;-80
2021/09/21 03:43:31;;;;;;;1.43;1.30;;;;;;;12.06;60.72;99760.13;5088245;28;43031;-84
2021/09/21 03:45:58;;;;;;;2.17;1.57;;;;;;;11.95;61.03;99746.56;5071539;28;41353;-81
2021/09/21 03:48:27;;;;;;;2.23;1.40;;;;;;;12.07;62.10;99761.84;5088506;28;40245;-82
2021/09/21 03:50:55;;;;;;;2.03;1.50;;;;;;;12.07;61.71;99772.47;5069505;28;40756;-80
2021/09/21 03:53:22;;;;;;;2.33;1.77;;;;;;;12.09;61.84;99775.91;5054070;28;41966;-79
2021/09/21 03:55:50;;;;;;;2.10;1.90;;;;;;;12.11;61.79;99780.19;5070179;28;42575;-82
2021/09/21 03:58:17;;;;;;;1.60;1.50;;;;;;;12.14;61.49;99787.97;5070874;28;39151;-81
2021/09/21 04:00:45;;;;;;;1.53;1.43;;;;;;;12.17;62.01;99789.59;5070696;28;41649;-83
2021/09/21 04:03:13;;;;;;;1.93;1.60;;;;;;;12.07;61.80;99773.31;5054431;28;42965;-83
2021/09/21 04:05:42;;;;;;;1.90;1.67;;;;;;;12.24;61.56;99790.97;5070651;28;42605;-82
2021/09/21 04:08:09;;;;;;;1.63;1.40;;;;;;;12.26;61.59;99797.06;5073788;28;41767;-79
2021/09/21 04:10:37;;;;;;;1.93;1.53;;;;;;;12.29;61.58;99796.03;5073571;28;40891;-81
2021/09/21 04:13:04;;;;;;;1.77;1.27;;;;;;;12.30;61.75;99801.28;5091151;28;43731;-79
2021/09/21 04:15:32;;;;;;;2.10;1.67;;;;;;;12.30;61.60;99806.59;5090576;28;44354;-81
2021/09/21 04:18:02;;;;;;;2.00;1.40;;;;;;;12.31;61.64;99807.44;5105670;28;39866;-80
2021/09/21 04:20:29;;;;;;;2.53;1.27;;;;;;;12.29;61.49;99818.16;5107976;28;40449;-79
2021/09/21 04:22:58;;;;;;;2.33;1.33;;;;;;;12.31;61.63;99813.63;5125633;28;41875;-78
2021/09/21 04:25:27;;;;;;;1.57;1.47;;;;;;;12.18;61.57;99791.31;5143397;27;43195;-79
2021/09/21 04:27:55;;;;;;;2.10;1.20;;;;;;;12.31;61.71;99808.31;5090748;28;39420;-80
2021/09/21 04:30:22;;;;;;;1.57;1.27;;;;;;;12.24;61.72;99805.09;5097422;28;42364;-83
2021/09/21 04:32:51;;;;;;;1.67;1.57;;;;;;;12.29;61.67;99819.94;5074833;28;41735;-82
2021/09/21 04:35:18;;;;;;;2.10;1.70;;;;;;;12.21;62.39;99796.47;5096315;28;41478;-80
2021/09/21 04:37:46;;;;;;;2.03;1.47;;;;;;;12.27;62.38;99821.81;5070694;28;40025;-82
2021/09/21 04:40:16;;;;;;;2.10;1.70;;;;;;;12.27;62.47;99828.00;5072391;28;42721;-80
2021/09/21 04:42:43;;;;;;;1.50;1.40;;;;;;;12.27;62.52;99825.34;5051501;28;42899;-81
2021/09/21 04:45:12;;;;;;;1.70;1.60;;;;;;;12.29;62.26;99819.94;5065426;28;41215;-84
2021/09/21 04:47:39;;;;;;;1.47;1.07;;;;;;;12.31;61.93;99829.56;5069496;28;38884;-79
2021/09/21 04:50:08;;;;;;;2.13;1.63;;;;;;;12.32;61.97;99831.28;5069240;28;40972;-80
2021/09/21 04:52:35;;;;;;;2.10;1.50;;;;;;;12.32;61.61;99836.59;5051574;28;42784;-81
2021/09/21 04:55:03;;;;;;;1.33;1.07;;;;;;;12.30;61.63;99835.81;5087633;28;42523;-80
2021/09/21 04:57:32;;;;;;;2.20;1.37;;;;;;;12.31;61.65;99837.53;5123984;27;40864;-81
2021/09/21 04:59:59;;;;;;;2.53;1.77;;;;;;;12.27;61.83;99835.97;5091050;28;41537;-81
2021/09/21 05:02:27;;;;;;;1.97;1.50;;;;;;;12.28;62.27;99837.69;5085491;28;42144;-80
2021/09/21 05:04:55;;;;;;;1.97;1.37;;;;;;;12.26;62.35;99830.72;5119454;27;43187;-81
2021/09/21 05:07:22;;;;;;;1.40;1.30;;;;;;;12.25;61.85;99840.50;5070492;28;39328;-78
2021/09/21 05:09:50;;;;;;;2.03;1.60;;;;;;;12.24;61.80;99844.94;5089468;28;42695;-78
2021/09/21 05:12:17;;;;;;;1.43;1.13;;;;;;;12.23;62.03;99837.09;5089617;28;42886;-77
2021/09/21 05:14:47;;;;;;;1.43;1.20;;;;;;;12.15;62.03;99831.31;5071147;28;41057;-77
2021/09/21 05:17:14;;;;;;;2.23;1.33;;;;;;;12.19;62.21;99841.69;5072284;28;39325;-78
2021/09/21 05:19:41;;;;;;;2.37;1.57;;;;;;;12.13;62.10;99830.53;5089771;28;41989;-79
2021/09/21 05:22:09;;;;;;;1.50;1.03;;;;;;;12.14;62.17;99845.53;5087829;28;42789;-77
2021/09/21 05:24:36;;;;;;;1.40;1.20;;;;;;;12.14;62.03;99848.19;5088702;28;42161;-81
2021/09/21 05:27:04;;;;;;;2.27;1.60;;;;;;;12.11;62.12;99848.38;5071662;28;39586;-85
2021/09/21 05:29:31;;;;;;;2.70;2.00;;;;;;;12.07;62.06;99852.13;5089369;28;42025;-84
2021/09/21 05:32:00;;;;;;;2.93;1.83;;;;;;;11.95;62.61;99837.69;5072044;28;42067;-83
2021/09/21 05:34:29;;;;;;;2.10;1.40;;;;;;;11.93;62.07;99838.69;5090360;28;42356;-85
2021/09/21 05:36:57;;;;;;;1.70;1.37;;;;;;;11.99;62.14;99864.94;5089743;28;39000;-83
2021/09/21 05:39:24;;;;;;;1.40;1.30;;;;;;;11.96;62.08;99859.78;5072404;28;41108;-87
2021/09/21 05:41:52;;;;;;;2.13;1.47;;;;;;;11.97;62.00;99869.47;5072280;28;42981;-87
2021/09/21 05:44:19;;;;;;;1.87;1.30;;;;;;;11.97;62.31;99877.44;5088771;28;42770;-82
2021/09/21 05:46:47;;;;;;;1.70;1.20;;;;;;;11.99;61.93;99880.88;5071967;28;40283;-81
2021/09/21 05:49:16;;;;;;;1.30;1.20;;;;;;;11.81;62.03;99856.97;5073855;28;40694;-85
2021/09/21 05:51:44;;;;;;;1.30;1.20;;;;;;;11.95;61.70;99880.16;5069171;28;41780;-79
2021/09/21 05:54:12;;;;;;;1.87;1.40;;;;;;;12.12;61.79;99903.16;5087998;28;42503;-79
2021/09/21 05:56:43;;;;;;;1.30;1.20;;;;;;;12.15;62.19;99900.34;5071315;28;39693;-78
2021/09/21 05:59:10;;;;;;;1.50;1.40;;;;;;;12.30;62.67;99914.63;5071518;28;40938;-79
2021/09/21 06:01:38;;;;;;;1.73;1.60;;;;;;;12.41;62.70;99915.78;5087596;28;42599;-83
2021/09/21 06:04:06;;;;;;;2.43;1.93;;;;;;;12.43;62.39;99892.66;5123008;27;42133;-81
2021/09/21 06:06:35;;;;;;;5.60;2.70;;;;;;;12.58;62.32;99915.75;5071097;28;39877;-80
2021/09/21 06:09:02;;;;;;;3.33;2.30;;;;;;;12.66;61.95;99927.75;5105250;28;41086;-76
2021/09/21 06:11:33;;;;;;;2.43;2.20;;;;;;;12.75;61.64;99932.56;5087300;28;42607;-79
2021/09/21 06:14:01;;;;;;;1.80;1.70;;;;;;;12.85;61.76;99931.16;5086854;28;41683;-81
2021/09/21 06:16:29;;;;;;;2.30;1.97;;;;;;;12.98;61.57;99937.50;5072498;28;40034;-80
2021/09/21 06:18:57;;;;;;;1.73;1.50;;;;;;;12.96;61.20;99918.13;5088856;28;41735;-84
2021/09/21 06:21:25;;;;;;;1.50;1.40;;;;;;;13.16;61.13;99947.16;5087833;28;43375;-82
2021/09/21 06:23:56;;;;;;;1.57;1.47;;;;;;;13.20;61.14;99938.06;5070476;28;41266;-79
2021/09/21 06:26:23;;;;;;;1.93;1.43;;;;;;;13.27;60.82;99934.09;5088694;28;40974;-78
2021/09/21 06:28:51;;;;;;;2.00;1.43;;;;;;;13.47;60.45;99950.75;5088096;28;42605;-80
2021/09/21 06:31:19;;;;;;;1.93;1.47;;;;;;;13.51;60.50;99941.63;5087658;28;43862;-80
2021/09/21 06:33:46;;;;;;;2.20;1.53;;;;;;;13.62;60.03;99955.19;5069817;28;42351;-79
2021/09/21 06:36:14;;;;;;;1.57;1.47;;;;;;;13.71;60.31;99959.16;5087468;28;42103;-78
2021/09/21 06:38:42;;;;;;;1.30;1.20;;;;;;;13.64;60.04;99942.66;5071793;28;41475;-78
2021/09/21 06:41:11;;;;;;;1.57;1.40;;;;;;;13.89;59.50;99958.91;5070162;28;41954;-79
2021/09/21 06:43:45;;;;;;;1.47;1.30;;;;;;;13.91;59.21;99962.34;5087408;28;43062;-86
2021/09/21 06:46:13;;;;;;;2.40;1.70;;;;;;;13.94;59.24;99958.66;5070942;28;39214;-82
2021/09/21 06:48:40;;;;;;;2.13;1.70;;;;;;;14.13;58.51;99983.25;5088225;28;42691;-77
2021/09/21 06:51:10;;;;;;;3.00;1.70;;;;;;;14.20;58.01;99984.63;5070546;28;42644;-81
2021/09/21 06:53:37;;;;;;;2.20;1.50;;;;;;;14.21;57.69;99962.34;5087275;28;42225;-88
2021/09/21 06:56:06;;;;;;;2.10;1.60;;;;;;;14.47;57.97;99992.78;5070961;28;38913;-85
2021/09/21 06:58:42;;;;;;;1.83;1.50;;;;;;;14.59;57.95;99994.69;5087543;28;40989;-84
2021/09/21 07:01:10;;;;;;;2.53;1.67;;;;;;;14.82;57.58;100014.66;5088182;28;42307;-82
2021/09/21 07:03:44;;;;;;;2.13;1.40;;;;;;;15.01;57.49;100014.34;5070371;28;41241;-81
2021/09/21 07:06:12;;;;;;;1.73;1.37;;;;;;;15.14;56.83;100006.44;5087111;28;39221;-83
2021/09/21 07:08:39;;;;;;;2.47;1.90;;;;;;;15.34;56.60;100019.38;5087221;28;42746;-83
2021/09/21 07:11:07;;;;;;;1.50;1.40;;;;;;;15.50;56.23;100024.59;5086696;28;41705;-81
2021/09/21 07:13:34;;;;;;;2.07;1.80;;;;;;;15.65;56.00;100032.53;5070400;28;42690;-84
2021/09/21 07:16:03;;;;;;;2.27;1.67;;;;;;;15.74;55.31;100033.72;5088539;28;40112;-82
2021/09/21 07:18:37;;;;;;;2.30;2.07;;;;;;;15.85;54.84;100043.72;5070884;28;41862;-82
2021/09/21 07:21:05;;;;;;;2.47;1.70;;;;;;;15.95;54.85;100048.34;5087442;28;42717;-82
2021/09/21 07:23:33;;;;;;;1.37;1.27;;;;;;;16.08;54.95;100041.25;5067305;28;41241;-82
2021/09/21 07:26:01;;;;;;;1.87;1.40;;;;;;;16.22;54.63;100048.34;5051908;28;41312;-82
2021/09/21 07:28:28;;;;;;;1.70;1.57;;;;;;;16.36;54.22;100040.25;5071593;28;41752;-81
2021/09/21 07:30:56;;;;;;;2.17;2.00;;;;;;;16.44;53.14;100045.09;5058777;28;42695;-81
2021/09/21 07:33:25;;;;;;;1.90;1.60;;;;;;;16.54;53.05;100027.47;5073938;28;42121;-82
2021/09/21 07:35:53;;;;;;;1.60;1.50;;;;;;;16.71;52.88;100024.50;5090216;28;39990;-79
2021/09/21 07:38:21;;;;;;;2.10;1.90;;;;;;;16.86;50.65;100031.47;5092051;28;41956;-84
2021/09/21 07:40:48;;;;;;;10.67;5.47;;;;;;;17.08;50.35;100005.88;5073210;28;42092;-81
2021/09/21 07:43:16;;;;;;;5.23;3.17;;;;;;;18.40;47.43;100041.69;5090575;28;42979;-78
2021/09/21 07:45:44;;;;;;;2.70;2.17;;;;;;;21.35;42.58;100059.59;5072962;28;39828;-79
2021/09/21 07:48:17;;;;;;;2.73;1.90;;;;;;;22.67;39.85;100073.63;5091903;28;42722;-84
2021/09/21 07:50:46;;;;;;;2.30;2.10;;;;;;;21.97;39.93;100082.78;5073513;28;41779;-80
2021/09/21 07:53:14;;;;;;;4.53;3.20;;;;;;;21.56;39.66;100094.56;5090268;28;41741;-82
2021/09/21 07:55:45;;;;;;;2.60;1.97;;;;;;;21.12;40.62;100091.22;5089664;28;39788;-77
2021/09/21 07:58:14;;;;;;;2.53;1.63;;;;;;;20.62;42.13;100087.47;5091453;28;41771;-79
2021/09/21 08:00:41;;;;;;;2.97;2.50;;;;;;;20.05;41.16;100099.34;5088616;28;43064;-80
2021/09/21 08:03:09;;;;;;;1.80;1.70;;;;;;;19.99;41.70;100089.09;5073350;28;42503;-87
2021/09/21 08:05:41;;;;;;;2.23;1.77;;;;;;;20.55;40.66;100086.25;5089653;28;40089;-78
2021/09/21 08:08:10;;;;;;;2.87;1.90;;;;;;;21.21;41.14;100086.88;5091744;28;41935;-81
2021/09/21 08:10:38;;;;;;;2.93;1.87;;;;;;;22.02;40.39;100085.94;5107482;28;41793;-82
2021/09/21 08:13:05;;;;;;;2.33;1.97;;;;;;;22.68;38.56;100086.16;5089900;28;43273;-82
2021/09/21 08:15:39;;;;;;;3.13;2.27;;;;;;;23.75;36.44;100134.47;5089005;28;41204;-81
2021/09/21 08:18:07;;;;;;;2.37;1.90;;;;;;;24.72;35.31;100139.34;5090352;28;42098;-80
2021/09/21 08:20:36;;;;;;;2.10;1.90;;;;;;;24.70;34.89;100142.19;5072240;28;42093;-78
2021/09/21 08:23:04;;;;;;;1.73;1.63;;;;;;;25.20;34.06;100158.75;5090461;28;42502;-81
2021/09/21 08:25:33;;;;;;;2.10;1.90;;;;;;;25.67;33.27;100166.56;5090434;28;40442;-80
2021/09/21 08:28:01;;;;;;;2.00;1.80;;;;;;;26.39;29.94;100181.50;5073064;28;42052;-79
2021/09/21 08:30:31;;;;;;;2.53;2.33;;;;;;;27.47;29.68;100186.72;5090621;28;42772;-83
2021/09/21 08:32:59;;;;;;;2.23;2.03;;;;;;;28.38;27.15;100182.78;5086232;28;41654;-82
2021/09/21 08:35:26;;;;;;;2.40;2.20;;;;;;;29.54;26.88;100159.78;5069425;28;40193;-78
2021/09/21 08:37:54;;;;;;;2.30;2.10;;;;;;;31.07;24.43;100196.25;5067629;28;42045;-80
2021/09/21 08:40:22;;;;;;;1.93;1.83;;;;;;;32.09;23.55;100213.13;5077903;28;43836;-81
2021/09/21 08:42:57;;;;;;;2.00;1.90;;;;;;;32.36;23.20;100204.03;5090485;28;42635;-80
2021/09/21 08:45:25;;;;;;;2.40;2.20;;;;;;;32.74;22.21;100207.16;5089123;28;40724;-79
2021/09/21 08:47:54;;;;;;;2.80;2.60;;;;;;;33.30;22.45;100217.00;5072442;28;40946;-83
2021/09/21 08:50:23;;;;;;;1.90;1.80;;;;;;;33.24;21.59;100217.84;5089668;28;43415;-79
2021/09/21 08:52:56;;;;;;;2.20;2.00;;;;;;;32.67;19.65;100243.81;5088363;28;42168;-84
2021/09/21 08:55:26;;;;;;;2.23;2.10;;;;;;;31.47;21.44;100213.91;5088938;28;40120;-85
2021/09/21 08:57:55;;;;;;;4.60;3.83;;;;;;;30.93;22.45;100211.69;5089933;28;41342;-84
2021/09/21 09:00:27;;;;;;;3.10;2.80;;;;;;;30.38;21.99;100220.47;5068579;28;42226;-83
2021/09/21 09:03:04;;;;;;;2.77;2.57;;;;;;;30.09;21.49;100228.69;5069356;28;41589;-81
2021/09/21 09:05:46;;;;;;;2.37;2.23;;;;;;;30.49;20.35;100241.88;5071048;28;42875;-77
2021/09/21 09:08:14;;;;;;;2.63;2.30;;;;;;;30.80;20.72;100227.97;5088149;28;40756;-81
2021/09/21 09:10:42;;;;;;;2.20;2.10;;;;;;;30.11;20.97;100238.41;5088653;28;42747;-80
2021/09/21 09:13:20;;;;;;;2.27;2.00;;;;;;;29.43;20.74;100233.06;5087829;28;41119;-81
2021/09/21 09:15:56;;;;;;;2.37;2.00;;;;;;;28.38;21.74;100238.13;5072353;28;39079;-78
2021/09/21 09:18:28;;;;;;;2.23;2.00;;;;;;;27.38;23.04;100234.03;5088966;28;42066;-79
2021/09/21 09:21:00;;;;;;;2.07;1.90;;;;;;;26.58;24.31;100213.00;5087494;28;43118;-80
2021/09/21 09:23:27;;;;;;;2.47;2.27;;;;;;;25.98;25.59;100215.75;5090154;28;43284;-80
2021/09/21 09:25:55;;;;;;;1.70;1.60;;;;;;;25.62;26.38;100209.59;5071695;28;39185;-81
2021/09/21 09:28:25;;;;;;;2.47;2.27;;;;;;;25.27;26.57;100211.34;5090078;28;42721;-79
2021/09/21 09:30:56;;;;;;;2.30;2.10;;;;;;;24.87;26.43;100219.06;5089031;28;41472;-79
2021/09/21 09:33:24;;;;;;;2.83;2.50;;;;;;;24.37;26.55;100222.22;5089463;28;42281;-82
2021/09/21 09:35:52;;;;;;;2.50;2.07;;;;;;;23.82;27.07;100197.81;5088046;28;40212;-80
2021/09/21 09:38:22;;;;;;;2.20;2.00;;;;;;;23.62;28.05;100215.94;5072288;28;40999;-78
2021/09/21 09:40:51;;;;;;;2.20;2.00;;;;;;;23.40;27.92;100216.25;5088460;28;43105;-78
2021/09/21 09:43:21;;;;;;;3.50;2.50;;;;;;;23.03;27.43;100218.81;5104663;28;42585;-79
2021/09/21 09:45:53;;;;;;;2.53;2.33;;;;;;;22.81;28.60;100208.31;5088636;28;38838;-85
2021/09/21 09:48:24;;;;;;;1.67;1.57;;;;;;;22.74;29.37;100224.19;5087899;28;42008;-86
2021/09/21 09:50:54;;;;;;;3.07;2.00;;;;;;;22.65;28.74;100226.84;5072967;28;42993;-82
2021/09/21 09:53:24;;;;;;;2.10;1.77;;;;;;;22.57;29.35;100216.78;5051835;28;41608;-81
2021/09/21 09:55:53;;;;;;;2.10;1.70;;;;;;;22.46;29.30;100217.75;5072857;28;41270;-81
2021/09/21 09:58:22;;;;;;;2.10;1.57;;;;;;;22.31;29.71;100200.22;5067710;28;42098;-79
2021/09/21 10:00:52;;;;;;;1.97;1.77;;;;;;;22.24;29.85;100187.44;5078328;28;42826;-76
2021/09/21 10:03:19;;;;;;;3.03;2.17;;;;;;;22.27;29.46;100204.19;5088372;28;42619;-80
2021/09/21 10:05:50;;;;;;;2.20;1.83;;;;;;;22.44;30.16;100205.38;5087577;28;38975;-79
2021/09/21 10:08:18;;;;;;;2.07;1.70;;;;;;;22.54;30.81;100201.69;5071815;28;40516;-79
2021/09/21 10:10:48;;;;;;;2.07;1.67;;;;;;;22.93;29.90;100207.16;5086978;28;43373;-78
2021/09/21 10:13:18;;;;;;;3.23;2.93;;;;;;;23.44;27.80;100211.41;5069976;28;42366;-79
2021/09/21 10:15:47;;;;;;;1.70;1.60;;;;;;;24.22;27.82;100218.31;5070335;28;39149;-82
2021/09/21 10:18:17;;;;;;;2.13;2.00;;;;;;;25.38;24.88;100246.34;5087764;28;42757;-83
2021/09/21 10:20:56;;;;;;;1.90;1.80;;;;;;;25.75;24.91;100248.88;5071109;28;42692;-84
2021/09/21 10:23:33;;;;;;;2.57;2.30;;;;;;;25.89;24.32;100244.72;5071762;28;41420;-81
2021/09/21 10:26:13;;;;;;;2.30;2.10;;;;;;;26.28;25.12;100234.28;5087460;28;40825;-83
2021/09/21 10:28:40;;;;;;;2.33;1.97;;;;;;;26.37;25.10;100238.72;5088064;28;41736;-84
2021/09/21 10:31:13;;;;;;;2.07;1.77;;;;;;;25.97;25.70;100230.34;5089047;28;42522;-85
2021/09/21 10:33:41;;;;;;;2.50;2.30;;;;;;;26.55;25.62;100227.75;5088419;28;42066;-84
2021/09/21 10:36:17;;;;;;;2.30;2.10;;;;;;;27.40;23.18;100237.44;5087573;28;39778;-83
2021/09/21 10:38:58;;;;;;;1.80;1.70;;;;;;;27.74;23.28;100230.97;5071356;28;40668;-86
2021/09/21 10:41:26;;;;;;;2.00;1.90;;;;;;;28.24;23.18;100233.41;5087044;28;43064;-83
2021/09/21 10:44:04;;;;;;;2.10;1.90;;;;;;;28.70;22.81;100236.25;5071530;28;42648;-83
2021/09/21 10:46:47;;;;;;;1.90;1.80;;;;;;;28.89;21.84;100250.34;5087640;28;41103;-84
2021/09/21 10:49:27;;;;;;;2.53;2.00;;;;;;;29.54;21.41;100240.84;5104934;27;42109;-84
2021/09/21 10:51:59;;;;;;;2.13;1.93;;;;;;;30.42;21.58;100242.81;5121144;27;43769;-88
2021/09/21 10:54:45;;;;;;;4.40;3.07;;;;;;;30.95;19.40;100264.34;5105528;27;41640;-82
2021/09/21 10:57:14;;;;;;;3.57;2.50;;;;;;;31.51;19.73;100239.88;5087296;28;40396;-83
2021/09/21 10:59:53;;;;;;;2.33;2.13;;;;;;;32.41;19.23;100261.84;5086999;28;42264;-84
2021/09/21 11:02:23;;;;;;;3.10;2.80;;;;;;;33.13;18.72;100228.38;5087068;28;42854;-82
2021/09/21 11:04:51;;;;;;;2.23;2.03;;;;;;;33.49;18.83;100249.13;5087270;28;43312;-81
2021/09/21 11:07:18;;;;;;;2.63;2.43;;;;;;;33.97;18.43;100251.66;5070011;28;40238;-80
2021/09/21 11:09:54;;;;;;;2.47;2.27;;;;;;;33.49;17.96;100254.63;5069176;28;40947;-82
2021/09/21 11:12:24;;;;;;;3.43;2.70;;;;;;;33.70;17.80;100261.81;5086581;28;42171;-79
2021/09/21 11:14:53;;;;;;;2.40;2.20;;;;;;;32.98;18.79;100252.41;5086726;28;41703;-80
2021/09/21 11:17:23;;;;;;;2.47;2.27;;;;;;;32.35;18.70;100237.13;5086591;28;41040;-81
2021/09/21 11:19:53;;;;;;;2.37;2.17;;;;;;;31.63;19.16;100246.50;5088121;28;41903;-81
2021/09/21 11:22:26;;;;;;;2.27;2.07;;;;;;;31.18;19.67;100242.28;5086008;28;42802;-81
2021/09/21 11:25:02;;;;;;;2.07;1.97;;;;;;;32.22;19.64;100237.91;5086555;28;42179;-82
2021/09/21 11:27:30;;;;;;;2.40;2.20;;;;;;;34.29;17.32;100249.94;5069560;28;39256;-78
2021/09/21 11:30:05;;;;;;;2.20;2.00;;;;;;;34.59;18.24;100254.69;5087056;28;41928;-79
2021/09/21 11:32:38;;;;;;;1.90;1.80;;;;;;;34.33;17.49;100251.19;5070436;28;41720;-82
2021/09/21 11:35:09;;;;;;;2.10;2.00;;;;;;;34.30;18.57;100241.47;5086604;28;42192;-81
2021/09/21 11:37:37;;;;;;;2.27;2.07;;;;;;;35.46;16.18;100252.34;5087368;28;41177;-82
2021/09/21 11:40:08;;;;;;;2.37;2.17;;;;;;;36.96;14.42;100259.28;5088684;28;41804;-81
2021/09/21 11:42:37;;;;;;;1.85;1.70;;;;;;;38.37;14.42;100258.44;5086335;28;42973;-79
2021/09/21 11:45:06;;;;;;;2.28;2.17;;;;;;;39.68;13.71;100251.94;5086469;28;41915;-81
2021/09/21 11:47:40;;;;;;;2.25;2.08;;;;;;;40.64;12.55;100274.75;5086133;28;39946;-79
2021/09/21 11:50:10;;;;;;;2.50;2.28;;;;;;;41.00;12.54;100280.75;5086406;28;42069;-79